createdAt,value
2018-05-18T00:00:03.876Z,8.90
2018-05-18T00:00:35.532Z,8.90
2018-05-18T00:01:07.224Z,8.90
2018-05-18T00:01:38.915Z,8.90
2018-05-18T00:02:10.531Z,8.90
2018-05-18T00:02:42.160Z,8.90
2018-05-18T00:03:13.796Z,8.80
2018-05-18T00:03:45.420Z,8.90
2018-05-18T00:04:17.070Z,9.00
2018-05-18T00:04:48.718Z,9.00
2018-05-18T00:05:20.373Z,8.90
2018-05-18T00:05:52.031Z,9.00
2018-05-18T00:06:23.667Z,8.90
2018-05-18T00:06:55.362Z,9.00
2018-05-18T00:07:26.956Z,9.00
2018-05-18T00:07:58.632Z,9.00
2018-05-18T00:08:30.296Z,9.10
2018-05-18T00:09:01.922Z,9.00
2018-05-18T00:09:33.585Z,9.00
2018-05-18T00:10:05.256Z,9.00
2018-05-18T00:10:36.900Z,9.00
2018-05-18T00:11:08.528Z,9.00
2018-05-18T00:11:40.193Z,9.10
2018-05-18T00:12:11.828Z,9.00
2018-05-18T00:12:43.480Z,9.00
2018-05-18T00:13:15.114Z,9.00
2018-05-18T00:13:46.750Z,8.90
2018-05-18T00:14:18.380Z,9.00
2018-05-18T00:14:50.021Z,8.90
2018-05-18T00:15:21.685Z,8.90
2018-05-18T00:15:53.316Z,9.00
2018-05-18T00:16:24.986Z,8.90
2018-05-18T00:16:56.607Z,9.00
2018-05-18T00:17:28.235Z,9.00
2018-05-18T00:17:59.848Z,8.90
2018-05-18T00:18:31.472Z,9.00
2018-05-18T00:19:03.128Z,8.90
2018-05-18T00:19:34.759Z,9.00
2018-05-18T00:20:06.414Z,9.00
2018-05-18T00:20:38.084Z,9.00
2018-05-18T00:21:09.716Z,9.00
2018-05-18T00:21:41.326Z,9.00
2018-05-18T00:22:12.972Z,9.00
2018-05-18T00:22:44.602Z,9.00
2018-05-18T00:23:16.238Z,9.00
2018-05-18T00:23:47.873Z,9.00
2018-05-18T00:24:20.144Z,8.90
2018-05-18T00:24:51.765Z,8.90
2018-05-18T00:25:23.396Z,8.90
2018-05-18T00:25:55.023Z,8.90
2018-05-18T00:26:26.680Z,8.90
2018-05-18T00:26:58.320Z,8.90
2018-05-18T00:27:29.968Z,8.90
2018-05-18T00:28:01.591Z,8.80
2018-05-18T00:28:33.239Z,8.80
2018-05-18T00:29:04.874Z,8.80
2018-05-18T00:29:36.486Z,8.90
2018-05-18T00:30:08.100Z,8.80
2018-05-18T00:30:39.721Z,8.80
2018-05-18T00:31:11.378Z,8.80
2018-05-18T00:31:43.010Z,8.80
2018-05-18T00:32:14.635Z,8.90
2018-05-18T00:32:46.252Z,8.90
2018-05-18T00:33:17.867Z,8.90
2018-05-18T00:33:49.509Z,8.90
2018-05-18T00:34:21.154Z,8.90
2018-05-18T00:34:52.771Z,8.90
2018-05-18T00:35:24.407Z,9.00
2018-05-18T00:35:56.051Z,8.80
2018-05-18T00:36:27.681Z,8.90
2018-05-18T00:36:59.297Z,8.90
2018-05-18T00:37:30.952Z,8.90
2018-05-18T00:38:02.602Z,8.90
2018-05-18T00:38:34.231Z,8.90
2018-05-18T00:39:05.860Z,8.90
2018-05-18T00:39:37.485Z,8.90
2018-05-18T00:40:09.111Z,8.90
2018-05-18T00:40:40.727Z,8.90
2018-05-18T00:41:12.342Z,9.00
2018-05-18T00:41:43.975Z,8.90
2018-05-18T00:42:15.611Z,8.90
2018-05-18T00:42:47.262Z,8.90
2018-05-18T00:43:22.008Z,8.90
2018-05-18T00:43:53.656Z,8.90
2018-05-18T00:44:25.298Z,8.90
2018-05-18T00:44:56.903Z,9.00
2018-05-18T00:45:28.540Z,8.90
2018-05-18T00:46:00.212Z,9.00
2018-05-18T00:46:31.855Z,8.90
2018-05-18T00:47:03.515Z,9.00
2018-05-18T00:47:35.151Z,9.00
2018-05-18T00:48:06.789Z,9.00
2018-05-18T00:48:38.405Z,9.00
2018-05-18T00:49:10.026Z,9.10
2018-05-18T00:49:41.653Z,9.00
2018-05-18T00:50:13.285Z,9.00
2018-05-18T00:50:44.945Z,9.00
2018-05-18T00:51:16.567Z,9.00
2018-05-18T00:51:48.207Z,8.90
2018-05-18T00:52:19.845Z,9.00
2018-05-18T00:52:51.484Z,9.00
2018-05-18T00:53:23.164Z,8.90
2018-05-18T00:53:54.780Z,9.00
2018-05-18T00:54:26.424Z,9.00
2018-05-18T00:54:58.052Z,9.00
2018-05-18T00:55:39.987Z,9.00
2018-05-18T00:56:11.617Z,9.00
2018-05-18T00:56:43.249Z,9.00
2018-05-18T00:57:14.875Z,9.00
2018-05-18T00:57:46.503Z,9.00
2018-05-18T00:58:18.247Z,9.10
2018-05-18T00:58:49.891Z,9.00
2018-05-18T00:59:21.518Z,9.00
2018-05-18T00:59:53.177Z,9.00
2018-05-18T01:00:24.803Z,9.00
2018-05-18T01:00:56.483Z,9.00
2018-05-18T01:01:28.122Z,9.10
2018-05-18T01:01:59.755Z,9.00
2018-05-18T01:02:31.425Z,9.00
2018-05-18T01:03:03.082Z,9.00
2018-05-18T01:03:34.720Z,9.10
2018-05-18T01:04:06.402Z,9.10
2018-05-18T01:04:38.040Z,9.10
2018-05-18T01:05:09.683Z,9.10
2018-05-18T01:05:41.309Z,9.10
2018-05-18T01:06:12.932Z,9.20
2018-05-18T01:06:44.568Z,9.20
2018-05-18T01:07:16.199Z,9.20
2018-05-18T01:07:47.845Z,9.10
2018-05-18T01:08:19.500Z,9.30
2018-05-18T01:08:51.126Z,9.30
2018-05-18T01:09:22.784Z,9.30
2018-05-18T01:09:54.408Z,9.30
2018-05-18T01:10:26.056Z,9.30
2018-05-18T01:10:57.691Z,9.30
2018-05-18T01:11:29.325Z,9.40
2018-05-18T01:12:00.984Z,9.40
2018-05-18T01:12:32.619Z,9.30
2018-05-18T01:13:04.263Z,9.40
2018-05-18T01:13:35.882Z,9.40
2018-05-18T01:14:07.507Z,9.40
2018-05-18T01:14:39.127Z,9.30
2018-05-18T01:15:10.775Z,9.40
2018-05-18T01:15:42.439Z,9.30
2018-05-18T01:16:14.070Z,9.40
2018-05-18T01:16:45.761Z,9.40
2018-05-18T01:17:17.393Z,9.50
2018-05-18T01:17:49.029Z,9.40
2018-05-18T01:18:20.682Z,9.40
2018-05-18T01:18:52.301Z,9.40
2018-05-18T01:19:24.139Z,9.40
2018-05-18T01:19:55.797Z,9.30
2018-05-18T01:20:27.442Z,9.50
2018-05-18T01:20:59.083Z,9.50
2018-05-18T01:21:30.729Z,9.50
2018-05-18T01:22:02.363Z,9.40
2018-05-18T01:22:34.003Z,9.50
2018-05-18T01:23:05.674Z,9.50
2018-05-18T01:23:37.306Z,9.50
2018-05-18T01:24:08.961Z,9.50
2018-05-18T01:24:40.605Z,9.60
2018-05-18T01:25:12.250Z,9.60
2018-05-18T01:25:43.880Z,9.50
2018-05-18T01:26:15.537Z,9.60
2018-05-18T01:26:47.187Z,9.50
2018-05-18T01:27:18.817Z,9.60
2018-05-18T01:27:50.504Z,9.50
2018-05-18T01:28:22.133Z,9.50
2018-05-18T01:28:53.765Z,9.50
2018-05-18T01:29:25.420Z,9.40
2018-05-18T01:29:57.061Z,9.50
2018-05-18T01:30:28.705Z,9.50
2018-05-18T01:31:00.341Z,9.50
2018-05-18T01:31:31.980Z,9.50
2018-05-18T01:32:03.607Z,9.50
2018-05-18T01:32:35.236Z,9.50
2018-05-18T01:33:06.863Z,9.40
2018-05-18T01:33:38.480Z,9.50
2018-05-18T01:34:10.098Z,9.50
2018-05-18T01:34:41.734Z,9.50
2018-05-18T01:35:13.393Z,9.50
2018-05-18T01:35:45.012Z,9.60
2018-05-18T01:36:16.660Z,9.50
2018-05-18T01:36:48.303Z,9.60
2018-05-18T01:37:19.968Z,9.60
2018-05-18T01:37:51.565Z,9.50
2018-05-18T01:38:23.226Z,9.60
2018-05-18T01:38:54.878Z,9.60
2018-05-18T01:39:26.513Z,9.70
2018-05-18T01:39:58.115Z,9.60
2018-05-18T01:40:29.742Z,9.60
2018-05-18T01:41:01.396Z,9.60
2018-05-18T01:41:33.048Z,9.70
2018-05-18T01:42:04.690Z,9.70
2018-05-18T01:42:36.337Z,9.60
2018-05-18T01:43:07.985Z,9.70
2018-05-18T01:43:39.633Z,9.70
2018-05-18T01:44:11.253Z,9.70
2018-05-18T01:44:42.879Z,9.60
2018-05-18T01:45:14.499Z,9.70
2018-05-18T01:45:46.147Z,9.80
2018-05-18T01:46:17.863Z,9.70
2018-05-18T01:46:49.523Z,9.80
2018-05-18T01:47:21.166Z,9.70
2018-05-18T01:47:52.819Z,9.80
2018-05-18T01:48:24.478Z,9.70
2018-05-18T01:48:56.119Z,9.80
2018-05-18T01:49:27.753Z,9.70
2018-05-18T01:49:59.361Z,9.70
2018-05-18T01:50:30.985Z,9.80
2018-05-18T01:51:02.636Z,9.70
2018-05-18T01:51:34.282Z,9.60
2018-05-18T01:52:05.920Z,9.70
2018-05-18T01:52:37.531Z,9.70
2018-05-18T01:53:09.167Z,9.80
2018-05-18T01:53:40.801Z,9.80
2018-05-18T01:54:12.420Z,9.70
2018-05-18T01:54:44.047Z,9.70
2018-05-18T01:55:15.686Z,9.70
2018-05-18T01:55:47.337Z,9.80
2018-05-18T01:56:18.971Z,9.70
2018-05-18T01:56:50.623Z,9.80
2018-05-18T01:57:22.239Z,9.80
2018-05-18T01:57:54.121Z,9.70
2018-05-18T01:58:25.752Z,9.80
2018-05-18T01:58:57.389Z,9.80
2018-05-18T01:59:29.007Z,9.80
2018-05-18T02:00:00.631Z,9.80
2018-05-18T02:00:32.308Z,9.80
2018-05-18T02:01:03.957Z,9.80
2018-05-18T02:01:35.575Z,9.80
2018-05-18T02:02:07.203Z,9.90
2018-05-18T02:02:38.848Z,9.90
2018-05-18T02:03:10.468Z,9.80
2018-05-18T02:03:42.099Z,9.80
2018-05-18T02:04:13.739Z,9.90
2018-05-18T02:04:45.386Z,9.80
2018-05-18T02:05:17.067Z,9.80
2018-05-18T02:05:48.710Z,9.70
2018-05-18T02:06:20.353Z,9.80
2018-05-18T02:06:52.017Z,9.80
2018-05-18T02:07:23.673Z,9.80
2018-05-18T02:07:55.278Z,9.90
2018-05-18T02:08:26.909Z,9.80
2018-05-18T02:08:58.558Z,9.90
2018-05-18T02:09:30.207Z,9.80
2018-05-18T02:10:01.837Z,9.90
2018-05-18T02:10:33.494Z,9.90
2018-05-18T02:11:05.125Z,9.80
2018-05-18T02:11:36.767Z,9.80
2018-05-18T02:12:08.377Z,9.80
2018-05-18T02:12:40.045Z,9.80
2018-05-18T02:13:11.683Z,9.80
2018-05-18T02:13:43.317Z,9.80
2018-05-18T02:14:14.952Z,9.80
2018-05-18T02:14:46.560Z,9.90
2018-05-18T02:15:18.217Z,9.90
2018-05-18T02:15:49.852Z,10.00
2018-05-18T02:16:21.496Z,9.90
2018-05-18T02:16:53.119Z,9.90
2018-05-18T02:17:24.741Z,9.90
2018-05-18T02:17:56.351Z,9.90
2018-05-18T02:18:27.984Z,10.00
2018-05-18T02:18:59.621Z,9.90
2018-05-18T02:19:31.239Z,9.90
2018-05-18T02:20:02.921Z,9.80
2018-05-18T02:20:34.535Z,9.80
2018-05-18T02:21:06.175Z,9.90
2018-05-18T02:21:37.795Z,9.80
2018-05-18T02:22:09.419Z,9.90
2018-05-18T02:22:41.056Z,9.90
2018-05-18T02:23:12.684Z,9.90
2018-05-18T02:23:44.309Z,9.90
2018-05-18T02:24:15.932Z,9.90
2018-05-18T02:24:47.557Z,10.00
2018-05-18T02:25:19.203Z,9.90
2018-05-18T02:25:50.880Z,9.90
2018-05-18T02:26:22.497Z,10.00
2018-05-18T02:26:54.123Z,9.90
2018-05-18T02:27:25.776Z,9.90
2018-05-18T02:27:57.433Z,10.00
2018-05-18T02:28:29.071Z,9.90
2018-05-18T02:29:00.751Z,10.00
2018-05-18T02:29:32.387Z,10.00
2018-05-18T02:30:04.082Z,10.00
2018-05-18T02:30:35.734Z,10.00
2018-05-18T02:31:07.371Z,9.90
2018-05-18T02:31:39.032Z,10.00
2018-05-18T02:32:10.660Z,10.00
2018-05-18T02:32:42.292Z,9.90
2018-05-18T02:33:13.944Z,9.90
2018-05-18T02:33:45.593Z,10.00
2018-05-18T02:34:17.215Z,9.90
2018-05-18T02:34:48.953Z,10.00
2018-05-18T02:35:20.512Z,10.00
2018-05-18T02:35:52.166Z,10.00
2018-05-18T02:36:23.800Z,10.00
2018-05-18T02:36:55.471Z,10.00
2018-05-18T02:37:27.118Z,10.00
2018-05-18T02:37:58.794Z,10.10
2018-05-18T02:38:30.428Z,10.00
2018-05-18T02:39:02.144Z,10.00
2018-05-18T02:39:33.808Z,10.00
2018-05-18T02:40:05.481Z,9.90
2018-05-18T02:40:37.112Z,10.00
2018-05-18T02:41:08.754Z,10.10
2018-05-18T02:41:40.392Z,9.90
2018-05-18T02:42:12.035Z,9.90
2018-05-18T02:42:43.670Z,10.00
2018-05-18T02:43:15.328Z,9.90
2018-05-18T02:43:46.958Z,9.90
2018-05-18T02:44:18.624Z,9.90
2018-05-18T02:44:50.272Z,9.90
2018-05-18T02:45:21.903Z,9.90
2018-05-18T02:45:53.536Z,9.80
2018-05-18T02:46:25.189Z,9.90
2018-05-18T02:46:56.823Z,9.80
2018-05-18T02:47:28.452Z,9.80
2018-05-18T02:48:00.064Z,9.80
2018-05-18T02:48:31.722Z,9.90
2018-05-18T02:49:03.368Z,9.90
2018-05-18T02:49:35.007Z,9.90
2018-05-18T02:50:06.635Z,9.90
2018-05-18T02:50:38.295Z,9.90
2018-05-18T02:51:09.923Z,9.80
2018-05-18T02:51:41.564Z,9.90
2018-05-18T02:52:13.200Z,9.90
2018-05-18T02:52:44.824Z,9.90
2018-05-18T02:53:16.471Z,9.90
2018-05-18T02:53:48.140Z,9.90
2018-05-18T02:54:19.796Z,9.90
2018-05-18T02:54:51.435Z,9.90
2018-05-18T02:55:23.066Z,9.90
2018-05-18T02:55:54.716Z,9.90
2018-05-18T02:56:26.341Z,9.90
2018-05-18T02:56:57.967Z,9.90
2018-05-18T02:57:29.601Z,9.80
2018-05-18T02:58:01.239Z,9.80
2018-05-18T02:58:32.870Z,9.80
2018-05-18T02:59:04.491Z,9.80
2018-05-18T02:59:36.138Z,9.80
2018-05-18T03:00:07.805Z,9.80
2018-05-18T03:00:39.413Z,9.80
2018-05-18T03:01:11.056Z,9.80
2018-05-18T03:01:42.716Z,9.90
2018-05-18T03:02:14.346Z,10.00
2018-05-18T03:02:46.046Z,9.90
2018-05-18T03:03:17.670Z,9.80
2018-05-18T03:03:49.323Z,9.90
2018-05-18T03:04:20.985Z,9.80
2018-05-18T03:04:52.611Z,9.80
2018-05-18T03:05:24.251Z,9.90
2018-05-18T03:05:55.873Z,9.80
2018-05-18T03:06:27.514Z,9.80
2018-05-18T03:06:59.135Z,9.80
2018-05-18T03:07:30.756Z,9.90
2018-05-18T03:08:02.404Z,9.80
2018-05-18T03:08:34.043Z,9.90
2018-05-18T03:09:05.705Z,9.90
2018-05-18T03:09:37.303Z,9.90
2018-05-18T03:10:08.946Z,9.90
2018-05-18T03:10:40.614Z,9.90
2018-05-18T03:11:12.229Z,9.80
2018-05-18T03:11:43.867Z,9.90
2018-05-18T03:12:15.489Z,9.90
2018-05-18T03:12:47.136Z,9.80
2018-05-18T03:13:18.817Z,9.90
2018-05-18T03:13:50.442Z,9.90
2018-05-18T03:14:22.051Z,9.90
2018-05-18T03:14:53.687Z,9.90
2018-05-18T03:15:25.353Z,9.90
2018-05-18T03:15:56.987Z,9.90
2018-05-18T03:16:28.619Z,9.90
2018-05-18T03:17:00.243Z,9.80
2018-05-18T03:17:31.865Z,9.90
2018-05-18T03:18:03.479Z,9.90
2018-05-18T03:18:35.111Z,9.90
2018-05-18T03:19:06.746Z,9.80
2018-05-18T03:19:38.364Z,9.80
2018-05-18T03:20:10.010Z,9.90
2018-05-18T03:20:41.641Z,9.90
2018-05-18T03:21:13.267Z,9.80
2018-05-18T03:21:44.931Z,9.90
2018-05-18T03:22:16.551Z,9.80
2018-05-18T03:22:48.167Z,9.80
2018-05-18T03:23:19.799Z,9.90
2018-05-18T03:23:51.425Z,9.90
2018-05-18T03:24:23.047Z,9.80
2018-05-18T03:24:54.735Z,9.90
2018-05-18T03:25:26.357Z,9.90
2018-05-18T03:25:57.966Z,9.90
2018-05-18T03:26:29.653Z,9.90
2018-05-18T03:27:01.283Z,9.90
2018-05-18T03:27:32.945Z,9.90
2018-05-18T03:28:04.571Z,9.80
2018-05-18T03:28:36.203Z,9.90
2018-05-18T03:29:07.843Z,9.90
2018-05-18T03:29:39.501Z,9.90
2018-05-18T03:30:11.147Z,9.90
2018-05-18T03:30:42.801Z,9.90
2018-05-18T03:31:14.424Z,9.80
2018-05-18T03:31:46.072Z,9.90
2018-05-18T03:32:17.717Z,9.90
2018-05-18T03:32:49.383Z,10.00
2018-05-18T03:33:21.052Z,9.90
2018-05-18T03:33:52.694Z,10.00
2018-05-18T03:34:24.335Z,10.00
2018-05-18T03:34:55.989Z,9.90
2018-05-18T03:35:27.619Z,10.00
2018-05-18T03:35:59.281Z,10.00
2018-05-18T03:36:30.905Z,10.00
2018-05-18T03:37:02.609Z,10.00
2018-05-18T03:37:34.237Z,9.90
2018-05-18T03:38:05.873Z,9.90
2018-05-18T03:38:37.505Z,10.00
2018-05-18T03:39:09.139Z,9.90
2018-05-18T03:39:40.776Z,10.00
2018-05-18T03:40:12.407Z,9.90
2018-05-18T03:40:44.021Z,9.90
2018-05-18T03:41:15.633Z,9.90
2018-05-18T03:41:47.259Z,9.90
2018-05-18T03:42:18.880Z,10.00
2018-05-18T03:42:50.499Z,10.00
2018-05-18T03:43:22.143Z,9.90
2018-05-18T03:43:53.795Z,9.90
2018-05-18T03:44:25.500Z,10.00
2018-05-18T03:44:57.095Z,10.10
2018-05-18T03:45:28.736Z,10.00
2018-05-18T03:46:00.388Z,10.00
2018-05-18T03:46:32.013Z,10.00
2018-05-18T03:47:03.650Z,10.00
2018-05-18T03:47:35.299Z,10.00
2018-05-18T03:48:06.930Z,10.00
2018-05-18T03:48:38.563Z,10.00
2018-05-18T03:49:10.220Z,10.00
2018-05-18T03:49:41.880Z,10.10
2018-05-18T03:50:13.519Z,10.10
2018-05-18T03:50:45.168Z,10.00
2018-05-18T03:51:16.816Z,9.90
2018-05-18T03:51:48.452Z,9.90
2018-05-18T03:52:20.083Z,10.00
2018-05-18T03:52:51.719Z,9.90
2018-05-18T03:53:23.375Z,10.00
2018-05-18T03:53:55.028Z,10.00
2018-05-18T03:54:26.664Z,10.00
2018-05-18T03:54:58.308Z,10.00
2018-05-18T03:55:29.938Z,10.00
2018-05-18T03:56:01.596Z,10.00
2018-05-18T03:56:33.241Z,10.00
2018-05-18T03:57:04.881Z,10.10
2018-05-18T03:57:36.514Z,10.10
2018-05-18T03:58:08.173Z,10.00
2018-05-18T03:58:39.823Z,10.00
2018-05-18T03:59:11.443Z,10.00
2018-05-18T03:59:43.048Z,10.10
2018-05-18T04:00:14.700Z,10.10
2018-05-18T04:00:46.350Z,10.00
2018-05-18T04:01:36.732Z,10.00
2018-05-18T04:02:26.991Z,10.00
2018-05-18T04:03:17.170Z,10.00
2018-05-18T04:04:07.239Z,10.00
2018-05-18T04:04:57.260Z,10.00
2018-05-18T04:05:47.508Z,10.00
2018-05-18T04:06:37.664Z,10.00
2018-05-18T04:07:27.982Z,10.00
2018-05-18T04:08:18.135Z,10.00
2018-05-18T04:08:52.665Z,10.10
2018-05-18T04:09:24.288Z,10.10
2018-05-18T04:09:55.923Z,10.00
2018-05-18T04:10:27.589Z,10.00
2018-05-18T04:10:59.237Z,10.10
2018-05-18T04:11:30.859Z,10.00
2018-05-18T04:12:02.511Z,10.00
2018-05-18T04:12:34.131Z,10.00
2018-05-18T04:13:05.767Z,10.10
2018-05-18T04:13:37.411Z,10.10
2018-05-18T04:14:09.046Z,10.10
2018-05-18T04:14:40.681Z,10.10
2018-05-18T04:15:12.339Z,10.10
2018-05-18T04:15:43.993Z,10.10
2018-05-18T04:16:15.600Z,10.10
2018-05-18T04:16:47.218Z,10.20
2018-05-18T04:17:18.853Z,10.20
2018-05-18T04:17:50.485Z,10.20
2018-05-18T04:18:22.139Z,10.10
2018-05-18T04:18:53.792Z,10.00
2018-05-18T04:19:25.514Z,10.10
2018-05-18T04:19:57.151Z,10.20
2018-05-18T04:20:28.779Z,10.10
2018-05-18T04:21:00.395Z,10.10
2018-05-18T04:21:32.037Z,10.10
2018-05-18T04:22:03.698Z,10.10
2018-05-18T04:22:35.343Z,10.10
2018-05-18T04:23:06.969Z,10.10
2018-05-18T04:23:38.606Z,10.10
2018-05-18T04:24:10.250Z,10.00
2018-05-18T04:24:41.891Z,10.10
2018-05-18T04:25:13.518Z,10.20
2018-05-18T04:25:45.169Z,10.20
2018-05-18T04:26:16.792Z,10.10
2018-05-18T04:26:48.449Z,10.20
2018-05-18T04:27:20.065Z,10.20
2018-05-18T04:27:51.709Z,10.20
2018-05-18T04:28:23.361Z,10.20
2018-05-18T04:28:54.980Z,10.20
2018-05-18T04:29:26.628Z,10.30
2018-05-18T04:29:58.259Z,10.30
2018-05-18T04:30:29.881Z,10.20
2018-05-18T04:31:01.545Z,10.30
2018-05-18T04:31:33.179Z,10.30
2018-05-18T04:32:04.817Z,10.20
2018-05-18T04:32:36.439Z,10.10
2018-05-18T04:33:08.127Z,10.20
2018-05-18T04:33:39.747Z,10.20
2018-05-18T04:34:11.365Z,10.20
2018-05-18T04:34:42.987Z,10.10
2018-05-18T04:35:14.626Z,10.20
2018-05-18T04:35:46.302Z,10.20
2018-05-18T04:36:17.929Z,10.30
2018-05-18T04:36:49.581Z,10.20
2018-05-18T04:37:21.193Z,10.20
2018-05-18T04:37:52.857Z,10.30
2018-05-18T04:38:24.475Z,10.30
2018-05-18T04:38:56.105Z,10.20
2018-05-18T04:39:27.749Z,10.20
2018-05-18T04:39:59.397Z,10.30
2018-05-18T04:40:31.057Z,10.30
2018-05-18T04:41:02.685Z,10.30
2018-05-18T04:41:34.310Z,10.20
2018-05-18T04:42:05.933Z,10.20
2018-05-18T04:42:37.575Z,10.10
2018-05-18T04:43:09.225Z,10.20
2018-05-18T04:43:40.845Z,10.20
2018-05-18T04:44:12.509Z,10.20
2018-05-18T04:44:44.125Z,10.30
2018-05-18T04:45:15.741Z,10.10
2018-05-18T04:45:47.383Z,10.20
2018-05-18T04:46:19.043Z,10.30
2018-05-18T04:46:50.657Z,10.20
2018-05-18T04:47:22.321Z,10.30
2018-05-18T04:47:53.963Z,10.30
2018-05-18T04:48:25.579Z,10.30
2018-05-18T04:48:57.199Z,10.40
2018-05-18T04:49:28.845Z,10.30
2018-05-18T04:50:00.471Z,10.20
2018-05-18T04:50:32.109Z,10.20
2018-05-18T04:51:03.828Z,10.30
2018-05-18T04:51:35.499Z,10.40
2018-05-18T04:52:07.172Z,10.30
2018-05-18T04:52:38.809Z,10.20
2018-05-18T04:53:10.447Z,10.30
2018-05-18T04:53:42.084Z,10.30
2018-05-18T04:54:13.715Z,10.40
2018-05-18T04:54:45.343Z,10.30
2018-05-18T04:55:16.969Z,10.30
2018-05-18T04:55:48.623Z,10.30
2018-05-18T04:56:20.247Z,10.30
2018-05-18T04:56:51.900Z,10.40
2018-05-18T04:57:23.547Z,10.30
2018-05-18T04:57:55.181Z,10.20
2018-05-18T04:58:26.823Z,10.30
2018-05-18T04:58:58.546Z,10.30
2018-05-18T04:59:30.103Z,10.30
2018-05-18T05:00:01.755Z,10.20
2018-05-18T05:00:33.421Z,10.30
2018-05-18T05:01:05.085Z,10.30
2018-05-18T05:01:36.717Z,10.40
2018-05-18T05:02:08.362Z,10.40
2018-05-18T05:02:39.983Z,10.40
2018-05-18T05:03:11.599Z,10.40
2018-05-18T05:03:43.225Z,10.40
2018-05-18T05:04:14.857Z,10.40
2018-05-18T05:04:46.488Z,10.50
2018-05-18T05:05:18.113Z,10.60
2018-05-18T05:05:49.756Z,10.50
2018-05-18T05:06:21.375Z,10.50
2018-05-18T05:06:53.013Z,10.50
2018-05-18T05:07:24.651Z,10.50
2018-05-18T05:07:56.295Z,10.50
2018-05-18T05:08:27.919Z,10.60
2018-05-18T05:08:59.566Z,10.50
2018-05-18T05:09:31.205Z,10.60
2018-05-18T05:10:02.906Z,10.70
2018-05-18T05:10:34.531Z,10.70
2018-05-18T05:11:06.181Z,10.50
2018-05-18T05:11:37.855Z,10.40
2018-05-18T05:12:09.467Z,10.60
2018-05-18T05:12:41.162Z,10.50
2018-05-18T05:13:12.739Z,10.30
2018-05-18T05:13:44.385Z,10.30
2018-05-18T05:14:16.013Z,10.40
2018-05-18T05:14:47.711Z,10.40
2018-05-18T05:15:19.366Z,10.40
2018-05-18T05:15:50.999Z,10.50
2018-05-18T05:16:22.648Z,10.60
2018-05-18T05:16:54.325Z,10.50
2018-05-18T05:17:25.979Z,10.60
2018-05-18T05:17:57.628Z,10.60
2018-05-18T05:18:29.235Z,10.60
2018-05-18T05:19:00.852Z,10.50
2018-05-18T05:19:32.485Z,10.60
2018-05-18T05:20:04.159Z,10.50
2018-05-18T05:20:35.780Z,10.50
2018-05-18T05:21:07.440Z,10.50
2018-05-18T05:21:39.063Z,10.40
2018-05-18T05:22:10.692Z,10.40
2018-05-18T05:22:42.319Z,10.40
2018-05-18T05:23:13.957Z,10.50
2018-05-18T05:23:45.614Z,10.40
2018-05-18T05:24:17.255Z,10.60
2018-05-18T05:24:48.888Z,10.70
2018-05-18T05:25:20.515Z,10.60
2018-05-18T05:25:52.171Z,10.60
2018-05-18T05:26:23.803Z,10.60
2018-05-18T05:26:55.431Z,10.60
2018-05-18T05:27:27.061Z,10.80
2018-05-18T05:27:58.691Z,10.80
2018-05-18T05:28:30.311Z,10.70
2018-05-18T05:29:01.957Z,10.80
2018-05-18T05:29:33.577Z,10.90
2018-05-18T05:30:05.239Z,10.90
2018-05-18T05:30:36.922Z,10.90
2018-05-18T05:31:08.513Z,10.80
2018-05-18T05:31:40.155Z,10.90
2018-05-18T05:32:11.808Z,10.90
2018-05-18T05:32:43.429Z,11.00
2018-05-18T05:33:15.053Z,11.10
2018-05-18T05:33:46.723Z,11.20
2018-05-18T05:34:18.346Z,11.10
2018-05-18T05:34:49.985Z,11.00
2018-05-18T05:35:21.607Z,11.10
2018-05-18T05:35:53.230Z,11.30
2018-05-18T05:36:24.861Z,11.20
2018-05-18T05:36:56.499Z,11.20
2018-05-18T05:37:28.127Z,11.20
2018-05-18T05:37:59.781Z,11.20
2018-05-18T05:38:31.417Z,11.30
2018-05-18T05:39:03.127Z,11.40
2018-05-18T05:39:34.772Z,11.40
2018-05-18T05:40:06.439Z,11.50
2018-05-18T05:40:38.085Z,11.30
2018-05-18T05:41:09.705Z,11.50
2018-05-18T05:41:41.326Z,11.60
2018-05-18T05:42:12.951Z,11.80
2018-05-18T05:42:44.633Z,11.80
2018-05-18T05:43:16.223Z,11.60
2018-05-18T05:43:47.846Z,11.40
2018-05-18T05:44:19.469Z,11.50
2018-05-18T05:44:51.106Z,11.50
2018-05-18T05:45:22.717Z,11.50
2018-05-18T05:45:54.360Z,11.50
2018-05-18T05:46:26.008Z,11.50
2018-05-18T05:46:57.740Z,11.50
2018-05-18T05:47:29.289Z,11.40
2018-05-18T05:48:00.930Z,11.50
2018-05-18T05:48:32.593Z,11.50
2018-05-18T05:49:04.295Z,11.60
2018-05-18T05:49:36.026Z,11.50
2018-05-18T05:50:07.599Z,11.60
2018-05-18T05:50:39.221Z,11.70
2018-05-18T05:51:10.853Z,11.50
2018-05-18T05:51:42.473Z,11.50
2018-05-18T05:52:14.126Z,11.80
2018-05-18T05:52:45.762Z,11.80
2018-05-18T05:53:17.411Z,11.80
2018-05-18T05:53:49.080Z,11.90
2018-05-18T05:54:21.129Z,12.10
2018-05-18T05:54:52.746Z,12.00
2018-05-18T05:55:24.398Z,12.00
2018-05-18T05:55:56.021Z,11.80
2018-05-18T05:56:27.627Z,11.90
2018-05-18T05:56:59.299Z,11.80
2018-05-18T05:57:30.919Z,11.60
2018-05-18T05:58:02.582Z,11.60
2018-05-18T05:58:34.286Z,11.40
2018-05-18T05:59:05.867Z,11.50
2018-05-18T05:59:37.524Z,11.60
2018-05-18T06:00:09.167Z,11.70
2018-05-18T06:00:40.825Z,11.70
2018-05-18T06:01:12.477Z,11.30
2018-05-18T06:01:44.122Z,11.50
2018-05-18T06:02:15.741Z,11.40
2018-05-18T06:02:47.389Z,11.60
2018-05-18T06:03:19.032Z,11.40
2018-05-18T06:03:50.671Z,11.40
2018-05-18T06:04:22.351Z,11.60
2018-05-18T06:04:53.999Z,11.60
2018-05-18T06:05:25.702Z,11.80
2018-05-18T06:05:57.308Z,11.70
2018-05-18T06:06:28.973Z,11.70
2018-05-18T06:07:00.617Z,11.80
2018-05-18T06:07:32.240Z,11.80
2018-05-18T06:08:03.867Z,11.70
2018-05-18T06:08:35.513Z,11.60
2018-05-18T06:09:07.171Z,11.60
2018-05-18T06:09:38.827Z,11.40
2018-05-18T06:10:10.471Z,11.50
2018-05-18T06:10:42.090Z,11.80
2018-05-18T06:11:13.763Z,11.80
2018-05-18T06:11:45.398Z,11.80
2018-05-18T06:12:17.138Z,11.80
2018-05-18T06:12:48.680Z,11.90
2018-05-18T06:13:20.351Z,11.90
2018-05-18T06:13:52.009Z,12.00
2018-05-18T06:14:23.727Z,11.90
2018-05-18T06:14:55.351Z,12.10
2018-05-18T06:15:27.018Z,12.10
2018-05-18T06:15:58.681Z,12.20
2018-05-18T06:16:30.385Z,12.10
2018-05-18T06:17:02.044Z,12.20
2018-05-18T06:17:33.662Z,12.10
2018-05-18T06:18:05.288Z,12.10
2018-05-18T06:18:36.917Z,12.20
2018-05-18T06:19:08.560Z,12.40
2018-05-18T06:19:40.203Z,12.20
2018-05-18T06:20:11.857Z,12.00
2018-05-18T06:20:43.483Z,11.90
2018-05-18T06:21:15.112Z,11.90
2018-05-18T06:21:46.733Z,11.80
2018-05-18T06:22:18.370Z,11.50
2018-05-18T06:22:50.007Z,11.40
2018-05-18T06:23:21.638Z,11.50
2018-05-18T06:23:53.275Z,11.60
2018-05-18T06:24:24.903Z,11.70
2018-05-18T06:24:56.587Z,11.50
2018-05-18T06:25:28.272Z,11.80
2018-05-18T06:25:59.920Z,11.60
2018-05-18T06:26:31.547Z,11.70
2018-05-18T06:27:03.198Z,11.80
2018-05-18T06:27:34.853Z,11.80
2018-05-18T06:28:06.491Z,11.80
2018-05-18T06:28:38.127Z,11.90
2018-05-18T06:29:09.740Z,11.80
2018-05-18T06:29:41.382Z,12.00
2018-05-18T06:30:13.031Z,11.90
2018-05-18T06:30:44.686Z,11.80
2018-05-18T06:31:16.299Z,12.00
2018-05-18T06:31:47.933Z,11.70
2018-05-18T06:32:19.564Z,11.50
2018-05-18T06:32:51.199Z,11.70
2018-05-18T06:33:22.836Z,11.60
2018-05-18T06:33:54.473Z,11.80
2018-05-18T06:34:26.106Z,11.60
2018-05-18T06:34:57.834Z,11.80
2018-05-18T06:35:29.424Z,11.80
2018-05-18T06:36:01.059Z,11.80
2018-05-18T06:36:32.708Z,11.70
2018-05-18T06:37:04.356Z,11.60
2018-05-18T06:37:36.011Z,11.60
2018-05-18T06:38:07.639Z,11.30
2018-05-18T06:38:39.308Z,11.50
2018-05-18T06:39:10.936Z,11.60
2018-05-18T06:39:42.557Z,11.60
2018-05-18T06:40:14.171Z,11.80
2018-05-18T06:40:45.807Z,11.90
2018-05-18T06:41:17.506Z,11.80
2018-05-18T06:41:49.114Z,11.70
2018-05-18T06:42:20.731Z,11.80
2018-05-18T06:42:52.374Z,11.60
2018-05-18T06:43:24.140Z,11.80
2018-05-18T06:43:55.770Z,11.80
2018-05-18T06:44:27.429Z,11.70
2018-05-18T06:44:59.056Z,11.90
2018-05-18T06:45:30.696Z,11.90
2018-05-18T06:46:02.362Z,12.00
2018-05-18T06:46:33.995Z,12.00
2018-05-18T06:47:05.636Z,11.90
2018-05-18T06:47:37.296Z,11.90
2018-05-18T06:48:08.928Z,12.10
2018-05-18T06:48:40.586Z,12.10
2018-05-18T06:49:12.211Z,11.80
2018-05-18T06:49:43.913Z,11.90
2018-05-18T06:50:15.529Z,12.00
2018-05-18T06:50:47.167Z,12.10
2018-05-18T06:51:18.817Z,12.20
2018-05-18T06:51:50.455Z,12.10
2018-05-18T06:52:22.125Z,12.40
2018-05-18T06:52:53.769Z,12.40
2018-05-18T06:53:25.410Z,12.50
2018-05-18T06:53:57.041Z,12.30
2018-05-18T06:54:28.688Z,12.10
2018-05-18T06:55:00.391Z,12.00
2018-05-18T06:55:32.027Z,12.10
2018-05-18T06:56:03.689Z,12.00
2018-05-18T06:56:35.325Z,12.10
2018-05-18T06:57:06.980Z,12.00